Terminal Aerodrome Forecast
Issued by NWS Newport/Morehead City, NC

Home | Current Version | Previous Version | Text Only | Print | Product List | Glossary On
Versions: 1 2 3 4 5 6 7 8 9 10 11 12 13 14 15 16 17 18 19
000
FTUS42 KMHX 191032 AAA
TAFEWN
TAF AMD
KEWN 191032Z 1911/2006 00000KT 4SM BR BKN003 BKN120
     FM191300 09010KT P6SM VCSH SCT025 BKN040
     FM191700 14010KT 4SM -SHRA OVC025
     FM200000 14009KT 3SM SHRA OVC009=

USA.gov is the U.S. government's official web portal to all federal, state and local government web resources and services.